| Date | Time | Temp. (oF) | Dew Point (oF) | Rel. Hum. (%) | Press. (in.) | Wind Dir. (deg.) | Wind Speed (mph) | Hourly Rainfall (i n.) |
|
|---|---|---|---|---|---|---|---|---|---|
| 1 | 05/05 | 24:00 | 55 | 48 | 79 | 30.11 | 90 | 0 | 0.00 |
| 2 | 05/04 | 23:00 | 57 | 49 | 76 | 30.11 | 90 | 0 | 0.00 |
| 3 | 05/04 | 22:00 | 58 | 48 | 71 | 30.09 | 90 | 0 | 0.00 |
| 4 | 05/04 | 21:00 | 61 | 50 | 68 | 30.05 | 90 | 0 | 0.00 |
| 5 | 05/04 | 20:00 | 63 | 50 | 64 | 30.05 | 90 | 0 | 0.00 |
| 6 | 05/04 | 19:00 | 67 | 53 | 61 | 30.05 | 90 | 0 | 0.00 |
| 7 | 05/04 | 18:00 | 70 | 53 | 56 | 30.05 | 100 | 2 | 0.00 |
| 8 | 05/04 | 17:00 | 71 | 52 | 53 | 30.05 | 30 | 1 | 0.00 |
| 9 | 05/04 | 16:00 | 71 | 50 | 49 | 30.06 | 10 | 0 | 0.00 |
| 10 | 05/04 | 15:00 | 72 | 51 | 48 | 30.07 | 50 | 1 | 0.00 |
| 11 | 05/04 | 14:00 | 72 | 48 | 44 | 30.07 | 330 | 1 | 0.00 |
| 12 | 05/04 | 13:00 | 72 | 48 | 44 | 30.06 | 70 | 2 | 0.00 |
| 13 | 05/04 | 12:00 | 74 | 47 | 40 | 30.05 | 100 | 4 | 0.00 |
| 14 | 05/04 | 11:00 | 70 | 48 | 47 | 30.08 | 310 | 4 | 0.00 |
| 15 | 05/04 | 10:00 | 62 | 47 | 59 | 30.12 | 310 | 7 | 0.00 |
| 16 | 05/04 | 09:00 | 58 | 44 | 61 | 30.09 | 40 | 2 | 0.00 |
| 17 | 05/04 | 08:00 | 55 | 45 | 71 | 30.09 | 290 | 0 | 0.00 |
| 18 | 05/04 | 07:00 | 52 | 43 | 74 | 30.13 | 310 | 0 | 0.00 |
| 19 | 05/04 | 06:00 | 53 | 44 | 73 | 30.12 | 310 | 0 | 0.00 |
| 20 | 05/04 | 05:00 | 54 | 44 | 70 | 30.11 | 310 | 1 | 0.00 |
| 21 | 05/04 | 04:00 | 54 | 43 | 68 | 30.11 | 310 | 0 | 0.00 |
| 22 | 05/04 | 03:00 | 55 | 44 | 68 | 30.12 | 310 | 1 | 0.00 |
| 23 | 05/04 | 02:00 | 55 | 44 | 68 | 30.14 | 310 | 2 | 0.00 |
| 24 | 05/04 | 01:00 | 55 | 44 | 68 | 30.15 | 10 | 0 | 0.00 |